KLCH/LCH METAR and TAF weather

Enter ICAO airport designator
Station Type Date Time Source
KLCH METAR 2020/02/24 22:53 UTC NOAA

KLCH 242253Z 21005KT 10SM BKN070 17/16 A2977 RMK AO2 SLP088 T01720156


Station Type Date Time Source
KLCH Decoded METAR 2020/02/24 22:53 UTC NOAA

LAKE CHARLES REGIONAL AIRPORT , LA, United States (KLCH) 30-12N 093-23W 3M
Feb 24, 2020 - 05:53 PM EST / 2020.02.24 2253 UTC
Wind: from the SSW (210 degrees) at 6 MPH (5 KT):0
Visibility: 10 mile(s):0
Sky conditions: mostly cloudy
Temperature: 63.0 F (17.2 C)
Dew Point: 60.1 F (15.6 C)
Relative Humidity: 90%
Pressure (altimeter): 29.77 in. Hg (1008 hPa)
ob: KLCH 242253Z 21005KT 10SM BKN070 17/16 A2977 RMK AO2 SLP088 T01720156
cycle: 23

Station Type Date Time Source
KLCH TAF 2020/02/24 21:10 UTC NOAA

TAF
AMD KLCH 242108Z 2421/2518 VRB05KT P6SM VCSH FEW004 OVC060
TEMPO 2421/2424 SCT030 OVC045
FM250000 VRB05KT P6SM OVC090
FM250300 34002KT P6SM BKN250

Example: see airport list